createdAt,value
2023-01-04T00:26:57.213Z,2.3
2023-01-04T00:56:57.527Z,1.7
2023-01-04T01:26:57.033Z,1.2
2023-01-04T01:57:02.403Z,1.7
2023-01-04T02:27:20.875Z,2.8
2023-01-04T02:57:25.643Z,3.3
2023-01-04T03:27:21.852Z,1.8
2023-01-04T03:56:58.689Z,1.8
2023-01-04T04:26:57.689Z,1.6
2023-01-04T04:56:57.105Z,2
2023-01-04T05:26:56.897Z,1.1
2023-01-04T05:56:56.625Z,0.8
2023-01-04T06:26:56.862Z,1.8
2023-01-04T06:56:59.065Z,1.6
2023-01-04T07:26:58.086Z,1.5
2023-01-04T07:56:58.854Z,1
2023-01-04T08:27:11.321Z,1.2
2023-01-04T08:57:23.624Z,1.1
2023-01-04T09:27:01.420Z,2.7
2023-01-04T09:57:03.036Z,3.3
2023-01-04T10:27:05.094Z,2.8
2023-01-04T10:57:08.359Z,1.7
2023-01-04T11:27:12.970Z,1.2
2023-01-04T11:57:12.426Z,1.7
2023-01-04T12:27:06.233Z,2.2
2023-01-04T12:57:19.227Z,2.7
2023-01-04T13:27:12.948Z,1.9
2023-01-04T13:57:20.617Z,1.9
2023-01-04T14:27:20.850Z,1.7
2023-01-04T14:57:10.867Z,2.2
2023-01-04T15:27:10.982Z,2.1
2023-01-04T15:57:13.524Z,2.9
2023-01-04T16:27:13.367Z,2.8
2023-01-04T16:57:13.329Z,3.2
2023-01-04T17:27:14.579Z,2.8
2023-01-04T17:57:14.784Z,3.5
2023-01-04T18:27:23.265Z,3.9
2023-01-04T18:57:18.326Z,3.8
2023-01-04T19:27:18.267Z,4
2023-01-04T19:57:17.242Z,3.4
2023-01-04T20:27:17.585Z,2.9
2023-01-04T20:57:20.269Z,4.1
2023-01-04T21:27:18.663Z,3.3
2023-01-04T21:57:22.406Z,3.3
2023-01-04T22:27:19.990Z,3.6
2023-01-04T22:57:20.446Z,3.6
2023-01-04T23:27:21.093Z,3.1
2023-01-04T23:57:21.533Z,3.4
